Time;durP1;ratioP1;P1;durP2;ratioP2;P2;SDS_P1;SDS_P2;PMS_P1;PMS_P2;Temp;Humidity;BMP_temperature;BMP_pressure;BME280_temperature;BME280_humidity;BME280_pressure;Samples;Min_cycle;Max_cycle;Signal;HPM_P1;HPM_P2
2022/03/13 00:01:58;;;;;;;25.00;11.88;;;5.20;39.40;;;;;;5110681;27;20066;-88
2022/03/13 00:04:24;;;;;;;26.35;12.55;;;5.00;39.80;;;;;;5113928;28;20024;-87
2022/03/13 00:06:50;;;;;;;25.58;11.60;;;5.10;40.00;;;;;;5115383;28;20034;-87
2022/03/13 00:09:21;;;;;;;26.90;12.40;;;5.30;40.30;;;;;;5114692;28;20386;-87
2022/03/13 00:11:47;;;;;;;28.88;12.20;;;5.10;39.70;;;;;;5115450;28;20378;-88
2022/03/13 00:14:13;;;;;;;26.95;12.05;;;4.90;40.10;;;;;;5114174;28;20020;-88
2022/03/13 00:16:39;;;;;;;24.95;11.82;;;4.70;40.70;;;;;;5115325;28;20032;-88
2022/03/13 00:19:07;;;;;;;25.65;11.27;;;4.80;41.30;;;;;;5113672;28;20138;-88
2022/03/13 00:21:35;;;;;;;22.58;11.02;;;4.70;41.20;;;;;;5114541;28;20011;-87
2022/03/13 00:24:01;;;;;;;22.02;11.52;;;4.40;40.90;;;;;;5114012;28;20032;-88
2022/03/13 00:26:27;;;;;;;22.40;11.45;;;4.00;41.50;;;;;;5113867;28;20031;-87
2022/03/13 00:28:53;;;;;;;22.48;11.50;;;4.00;41.70;;;;;;5114451;28;20092;-88
2022/03/13 00:31:19;;;;;;;25.48;12.30;;;4.20;42.00;;;;;;5113041;28;20027;-89
2022/03/13 00:33:44;;;;;;;24.38;11.90;;;4.30;41.70;;;;;;5114394;28;20032;-89
2022/03/13 00:36:10;;;;;;;26.98;12.25;;;4.50;41.50;;;;;;5113595;28;20023;-89
2022/03/13 00:38:36;;;;;;;24.17;12.18;;;4.60;40.70;;;;;;5114827;28;20044;-89
2022/03/13 00:41:01;;;;;;;27.00;12.60;;;4.70;40.70;;;;;;5114585;28;20020;-91
2022/03/13 00:43:28;;;;;;;28.00;13.15;;;4.70;40.50;;;;;;5114348;28;20024;-89
2022/03/13 00:45:54;;;;;;;28.48;13.52;;;4.50;40.30;;;;;;5113339;28;20054;-89
2022/03/13 00:48:21;;;;;;;28.15;13.98;;;4.30;40.80;;;;;;5113490;28;20481;-88
2022/03/13 00:50:47;;;;;;;29.25;13.52;;;4.30;40.80;;;;;;5113212;28;20470;-90
2022/03/13 00:53:13;;;;;;;25.70;12.25;;;4.40;40.80;;;;;;5114111;28;20031;-90
2022/03/13 00:55:39;;;;;;;27.77;14.07;;;4.50;40.40;;;;;;5113262;28;20023;-88
2022/03/13 00:58:05;;;;;;;27.40;13.35;;;4.40;40.30;;;;;;5113069;28;20385;-90
2022/03/13 01:00:31;;;;;;;25.52;12.77;;;4.40;40.50;;;;;;5112627;28;20042;-89
2022/03/13 01:02:56;;;;;;;25.70;13.20;;;4.60;40.60;;;;;;5114308;28;20081;-89
2022/03/13 01:05:25;;;;;;;29.90;14.05;;;4.50;40.90;;;;;;5112894;28;20031;-89
2022/03/13 01:07:52;;;;;;;27.70;12.95;;;4.40;40.60;;;;;;5113120;28;20020;-85
2022/03/13 01:10:18;;;;;;;29.90;14.20;;;4.40;40.50;;;;;;5113842;28;20387;-89
2022/03/13 01:12:45;;;;;;;27.40;12.70;;;4.30;40.60;;;;;;5112679;28;20024;-89
2022/03/13 01:15:11;;;;;;;24.30;12.27;;;4.10;40.80;;;;;;5113228;28;20024;-89
2022/03/13 01:17:36;;;;;;;26.00;12.55;;;4.20;41.10;;;;;;5113208;28;20027;-88
2022/03/13 01:20:05;;;;;;;26.00;12.45;;;4.30;41.00;;;;;;5112902;28;20058;-89
2022/03/13 01:22:31;;;;;;;23.55;11.90;;;4.50;40.50;;;;;;5113098;28;20032;-88
2022/03/13 01:24:57;;;;;;;23.60;11.75;;;4.60;40.30;;;;;;5113251;28;20032;-88
2022/03/13 01:27:23;;;;;;;27.20;12.18;;;4.60;40.30;;;;;;5113276;28;20023;-87
2022/03/13 01:29:49;;;;;;;24.95;11.10;;;4.70;40.10;;;;;;5113018;28;20028;-88
2022/03/13 01:32:16;;;;;;;24.15;11.57;;;4.50;40.10;;;;;;5113950;28;20024;-88
2022/03/13 01:34:43;;;;;;;28.05;12.27;;;4.20;40.60;;;;;;5112537;28;20143;-81
2022/03/13 01:37:28;;;;;;;20.25;10.52;;;4.30;40.30;;;;;;5112849;28;20038;-87
2022/03/13 01:39:54;;;;;;;24.30;10.93;;;4.10;40.60;;;;;;5112607;28;20039;-85
2022/03/13 01:42:20;;;;;;;23.42;10.98;;;3.90;41.10;;;;;;5112606;28;20024;-85
2022/03/13 01:44:46;;;;;;;21.55;10.63;;;3.80;41.30;;;;;;5112510;28;20047;-87
2022/03/13 01:47:23;;;;;;;25.95;11.68;;;4.10;40.90;;;;;;5112955;28;20062;-86
2022/03/13 01:49:49;;;;;;;20.90;10.43;;;4.20;40.80;;;;;;5112327;28;20039;-85
2022/03/13 01:52:16;;;;;;;22.95;10.40;;;4.20;40.60;;;;;;5112578;28;20072;-86
2022/03/13 01:54:44;;;;;;;27.15;11.43;;;4.20;40.30;;;;;;5113229;28;20058;-87
2022/03/13 01:57:15;;;;;;;22.40;11.13;;;4.00;40.50;;;;;;5113552;28;20096;-88
2022/03/13 01:59:41;;;;;;;21.33;10.25;;;3.70;41.30;;;;;;5113856;28;20088;-88
2022/03/13 02:02:07;;;;;;;28.30;11.25;;;3.80;41.30;;;;;;5112520;28;20028;-87
2022/03/13 02:04:34;;;;;;;22.95;11.90;;;3.70;41.10;;;;;;5113684;28;20024;-87
2022/03/13 02:06:59;;;;;;;22.23;10.80;;;3.40;41.70;;;;;;5117280;28;20110;-84
2022/03/13 02:09:34;;;;;;;25.98;10.95;;;3.20;42.10;;;;;;5117182;28;20104;-87
2022/03/13 02:12:00;;;;;;;22.85;11.52;;;3.10;42.20;;;;;;5116572;28;20062;-86
2022/03/13 02:14:26;;;;;;;25.80;11.25;;;3.20;42.70;;;;;;5116634;28;20176;-84
2022/03/13 02:16:53;;;;;;;25.08;12.13;;;3.20;42.30;;;;;;5116177;28;20027;-86
2022/03/13 02:19:19;;;;;;;24.25;10.70;;;3.60;42.10;;;;;;5117191;28;20054;-87
2022/03/13 02:21:49;;;;;;;21.15;11.40;;;3.50;42.00;;;;;;5116452;28;20470;-85
2022/03/13 02:24:16;;;;;;;;;;;3.50;41.50;;;;;;5115861;28;20069;-86
2022/03/13 02:26:44;;;;;;;25.38;11.38;;;3.30;41.70;;;;;;5116071;28;20014;-86
2022/03/13 02:29:15;;;;;;;24.50;11.88;;;3.10;42.30;;;;;;5117332;28;20046;-84
2022/03/13 02:31:42;;;;;;;23.48;11.75;;;3.10;42.70;;;;;;5112981;27;20036;-85
2022/03/13 02:34:13;;;;;;;24.23;12.23;;;3.30;42.20;;;;;;5111614;28;20404;-86
2022/03/13 02:36:41;;;;;;;24.60;11.73;;;3.30;42.00;;;;;;5115916;28;20039;-83
2022/03/13 02:39:09;;;;;;;23.77;11.40;;;3.60;41.80;;;;;;5115558;28;20035;-84
2022/03/13 02:41:40;;;;;;;25.13;11.60;;;3.30;41.50;;;;;;5116737;28;20447;-84
2022/03/13 02:44:12;;;;;;;21.80;10.63;;;2.80;42.30;;;;;;5121466;27;20027;-85
2022/03/13 02:46:46;;;;;;;21.85;10.52;;;2.90;42.90;;;;;;5117010;28;20098;-84
2022/03/13 02:49:13;;;;;;;21.00;10.48;;;3.00;42.60;;;;;;5115906;28;20020;-84
2022/03/13 02:51:39;;;;;;;19.42;11.05;;;2.90;42.50;;;;;;5115724;28;20035;-83
2022/03/13 02:54:05;;;;;;;21.95;10.70;;;3.10;42.70;;;;;;5116814;28;20027;-85
2022/03/13 02:56:31;;;;;;;21.67;10.75;;;3.40;42.40;;;;;;5115519;28;20073;-85
2022/03/13 02:58:56;;;;;;;23.98;11.13;;;3.40;42.20;;;;;;5114974;28;20028;-86
2022/03/13 03:01:22;;;;;;;20.00;10.25;;;3.30;41.90;;;;;;5114411;28;20019;-86
2022/03/13 03:03:52;;;;;;;21.08;10.32;;;3.10;42.00;;;;;;5114969;28;20054;-85
2022/03/13 03:06:17;;;;;;;20.75;10.77;;;3.00;42.60;;;;;;5115303;28;20047;-87
2022/03/13 03:08:43;;;;;;;22.15;10.77;;;3.00;42.60;;;;;;5116613;28;20110;-86
2022/03/13 03:11:09;;;;;;;23.23;10.88;;;3.10;42.60;;;;;;5115112;28;20031;-85
2022/03/13 03:13:35;;;;;;;20.08;10.02;;;3.40;42.40;;;;;;5114947;28;20088;-83
2022/03/13 03:16:01;;;;;;;21.52;11.15;;;3.40;42.60;;;;;;5112485;28;20015;-85
2022/03/13 03:18:26;;;;;;;24.98;10.20;;;3.40;42.80;;;;;;5114796;28;20058;-86
2022/03/13 03:20:52;;;;;;;19.13;10.68;;;3.60;42.70;;;;;;5115019;28;20032;-87
2022/03/13 03:23:18;;;;;;;17.98;10.23;;;3.50;41.70;;;;;;5116125;28;20035;-86
2022/03/13 03:25:43;;;;;;;21.23;9.77;;;3.30;42.20;;;;;;5114870;28;20035;-86
2022/03/13 03:28:10;;;;;;;23.80;10.35;;;3.10;42.60;;;;;;5114580;28;20035;-86
2022/03/13 03:30:35;;;;;;;19.33;10.35;;;2.90;43.30;;;;;;5114535;28;20627;-84
2022/03/13 03:33:03;;;;;;;21.35;10.00;;;3.00;43.40;;;;;;5114718;28;20122;-86
2022/03/13 03:35:29;;;;;;;21.95;9.45;;;2.80;44.20;;;;;;5115014;28;20055;-86
2022/03/13 03:37:57;;;;;;;18.88;8.77;;;2.70;44.70;;;;;;5115544;28;20719;-84
2022/03/13 03:40:24;;;;;;;19.85;9.73;;;2.90;45.10;;;;;;5116202;28;20393;-85
2022/03/13 03:42:50;;;;;;;17.55;9.13;;;3.10;44.00;;;;;;5114390;28;20015;-84
2022/03/13 03:45:19;;;;;;;18.15;9.23;;;3.20;43.40;;;;;;5114088;28;20031;-85
2022/03/13 03:47:45;;;;;;;18.77;9.57;;;3.20;43.60;;;;;;5115565;28;20015;-85
2022/03/13 03:50:11;;;;;;;21.27;9.80;;;2.50;44.30;;;;;;5113815;28;20031;-81
2022/03/13 03:52:37;;;;;;;17.55;8.65;;;2.10;45.10;;;;;;5114388;28;20020;-84
2022/03/13 03:55:03;;;;;;;17.45;8.90;;;2.20;45.70;;;;;;5115785;28;20038;-85
2022/03/13 03:57:29;;;;;;;20.00;9.23;;;2.40;45.60;;;;;;5115323;28;20019;-85
2022/03/13 03:59:54;;;;;;;18.70;9.13;;;2.70;45.20;;;;;;5113641;28;20108;-85
2022/03/13 04:02:20;;;;;;;20.25;9.23;;;2.90;44.40;;;;;;5114149;28;20032;-84
2022/03/13 04:04:46;;;;;;;18.00;8.48;;;2.90;44.10;;;;;;5115631;28;20515;-85
2022/03/13 04:07:13;;;;;;;17.08;8.93;;;2.70;44.20;;;;;;5113402;28;20024;-82
2022/03/13 04:09:39;;;;;;;19.55;9.00;;;2.60;44.70;;;;;;5113859;28;20038;-85
2022/03/13 04:12:07;;;;;;;19.30;10.40;;;3.00;44.50;;;;;;5114645;28;20031;-85
2022/03/13 04:14:37;;;;;;;26.23;13.40;;;3.20;43.90;;;;;;5113866;28;20026;-85
2022/03/13 04:17:07;;;;;;;28.00;12.50;;;3.20;43.90;;;;;;5114431;28;20030;-82
2022/03/13 04:19:32;;;;;;;33.28;15.52;;;3.20;44.10;;;;;;5114879;28;20092;-85
2022/03/13 04:21:58;;;;;;;28.75;14.23;;;3.20;44.40;;;;;;5114987;28;20036;-83
2022/03/13 04:24:24;;;;;;;21.20;11.23;;;3.40;44.10;;;;;;5114906;28;20028;-84
2022/03/13 04:26:51;;;;;;;24.25;11.50;;;3.20;43.30;;;;;;5114101;28;20052;-86
2022/03/13 04:29:18;;;;;;;24.75;12.23;;;3.00;43.30;;;;;;5111746;28;20381;-85
2022/03/13 04:31:44;;;;;;;20.13;10.82;;;2.80;43.50;;;;;;5111965;28;20019;-84
2022/03/13 04:34:11;;;;;;;22.77;12.38;;;3.10;43.60;;;;;;5112664;28;20023;-84
2022/03/13 04:36:37;;;;;;;19.15;10.55;;;2.60;44.30;;;;;;5113412;28;20098;-79
2022/03/13 04:39:07;;;;;;;20.80;10.75;;;2.40;44.70;;;;;;5112041;28;20035;-83
2022/03/13 04:41:33;;;;;;;20.17;11.23;;;2.20;44.60;;;;;;5112878;28;20346;-85
2022/03/13 04:43:59;;;;;;;22.13;11.85;;;2.10;44.90;;;;;;5111362;28;20039;-83
2022/03/13 04:46:26;;;;;;;24.23;10.82;;;2.10;45.50;;;;;;5112195;28;20020;-84
2022/03/13 04:48:55;;;;;;;21.65;11.75;;;2.30;44.90;;;;;;5111959;28;20473;-82
2022/03/13 04:51:21;;;;;;;23.23;11.95;;;2.60;44.50;;;;;;5114570;28;20525;-85
2022/03/13 04:53:47;;;;;;;23.33;11.68;;;2.70;44.80;;;;;;5114407;28;20120;-85
2022/03/13 04:56:13;;;;;;;22.92;11.50;;;2.90;44.40;;;;;;5114735;28;20419;-85
2022/03/13 04:58:39;;;;;;;24.45;11.55;;;2.90;43.30;;;;;;5113567;28;20035;-82
2022/03/13 05:01:10;;;;;;;28.42;12.55;;;2.80;43.60;;;;;;5113627;28;20024;-84
2022/03/13 05:03:35;;;;;;;20.42;11.38;;;2.60;44.00;;;;;;5111994;28;20087;-82
2022/03/13 05:06:05;;;;;;;20.55;10.93;;;2.70;44.10;;;;;;5113359;28;20518;-83
2022/03/13 05:08:34;;;;;;;22.67;11.68;;;2.60;43.80;;;;;;5114107;28;20102;-84
2022/03/13 05:11:00;;;;;;;23.40;12.15;;;2.60;44.00;;;;;;5114372;28;20378;-86
2022/03/13 05:13:27;;;;;;;24.58;12.40;;;2.60;44.10;;;;;;5113819;28;20058;-83
2022/03/13 05:15:53;;;;;;;24.40;11.40;;;2.80;44.00;;;;;;5112644;28;20027;-84
2022/03/13 05:18:19;;;;;;;24.58;10.95;;;2.80;43.60;;;;;;5112771;28;20030;-83
2022/03/13 05:20:45;;;;;;;20.98;10.05;;;2.40;43.80;;;;;;5114131;28;20449;-84
2022/03/13 05:23:11;;;;;;;21.15;10.65;;;2.00;44.40;;;;;;5113832;28;20053;-83
2022/03/13 05:25:38;;;;;;;24.15;11.13;;;2.40;44.60;;;;;;5113966;28;20031;-83
2022/03/13 05:28:05;;;;;;;20.33;10.55;;;2.70;44.20;;;;;;5112951;28;20051;-85
2022/03/13 05:30:31;;;;;;;21.55;11.25;;;2.80;44.10;;;;;;5113723;28;20489;-82
2022/03/13 05:32:58;;;;;;;30.23;12.93;;;3.00;44.00;;;;;;5113901;28;20530;-82
2022/03/13 05:35:24;;;;;;;31.98;14.90;;;3.30;43.70;;;;;;5113996;28;20432;-84
2022/03/13 05:37:50;;;;;;;34.13;15.43;;;3.50;43.60;;;;;;5112578;28;20347;-83
2022/03/13 05:40:18;;;;;;;30.80;15.32;;;3.60;43.70;;;;;;5113533;28;20066;-83
2022/03/13 05:42:46;;;;;;;22.70;11.90;;;3.60;43.10;;;;;;5116770;28;20024;-83
2022/03/13 05:45:15;;;;;;;22.05;11.18;;;3.30;43.30;;;;;;5117654;28;20022;-81
2022/03/13 05:47:47;;;;;;;21.73;10.88;;;3.00;43.90;;;;;;5117885;28;20028;-83
2022/03/13 05:50:14;;;;;;;17.05;9.23;;;3.20;43.90;;;;;;5116735;28;20043;-83
2022/03/13 05:52:41;;;;;;;19.02;10.70;;;3.20;44.10;;;;;;5117683;28;20024;-83
2022/03/13 05:55:08;;;;;;;20.95;10.50;;;2.90;45.20;;;;;;5116467;28;20031;-83
2022/03/13 05:57:34;;;;;;;22.48;11.85;;;2.80;45.90;;;;;;5116475;28;20104;-83
2022/03/13 06:00:00;;;;;;;29.58;13.95;;;3.10;45.70;;;;;;5116316;28;20039;-83
2022/03/13 06:02:26;;;;;;;22.58;12.13;;;3.50;45.40;;;;;;5116703;28;20027;-83
2022/03/13 06:04:52;;;;;;;26.23;12.32;;;3.80;45.20;;;;;;5117511;28;20023;-84
2022/03/13 06:07:18;;;;;;;22.50;11.20;;;3.90;44.60;;;;;;5116301;28;20466;-84
2022/03/13 06:09:44;;;;;;;21.63;11.20;;;4.00;45.00;;;;;;5117622;28;20027;-85
2022/03/13 06:12:10;;;;;;;21.92;11.43;;;4.30;44.80;;;;;;5117319;28;20027;-86
2022/03/13 06:14:35;;;;;;;38.33;16.48;;;4.50;44.00;;;;;;5117362;28;20023;-83
2022/03/13 06:17:02;;;;;;;63.10;27.40;;;4.60;43.50;;;;;;5115812;28;20030;-84
2022/03/13 06:19:27;;;;;;;68.40;30.10;;;4.90;43.30;;;;;;5115934;28;20054;-84
2022/03/13 06:21:53;;;;;;;66.70;30.67;;;5.10;42.80;;;;;;5117063;28;20023;-83
2022/03/13 06:24:19;;;;;;;53.50;24.73;;;5.10;42.40;;;;;;5116992;28;20035;-81
2022/03/13 06:26:45;;;;;;;37.88;18.05;;;5.10;42.40;;;;;;5116929;28;20030;-83
2022/03/13 06:29:13;;;;;;;27.13;14.60;;;5.30;42.10;;;;;;5117074;28;20024;-83
2022/03/13 06:31:40;;;;;;;26.70;11.85;;;5.50;41.70;;;;;;4759850;28;10000334;-84
2022/03/13 06:34:07;;;;;;;23.17;12.70;;;5.50;41.80;;;;;;5112333;28;20118;-83
2022/03/13 06:36:34;;;;;;;24.48;11.77;;;5.60;41.50;;;;;;5112464;28;20110;-84
2022/03/13 06:39:00;;;;;;;25.38;13.23;;;5.70;40.90;;;;;;5111976;28;20035;-85
2022/03/13 06:41:26;;;;;;;26.65;13.88;;;5.60;41.50;;;;;;5112310;28;20027;-84
2022/03/13 06:43:52;;;;;;;30.95;13.65;;;5.70;41.10;;;;;;5111705;28;20020;-83
2022/03/13 06:46:17;;;;;;;22.88;12.65;;;5.80;40.60;;;;;;5113042;28;20080;-83
2022/03/13 06:48:43;;;;;;;24.00;12.07;;;6.00;40.60;;;;;;5111804;28;20032;-83
2022/03/13 06:51:09;;;;;;;26.77;12.38;;;6.10;40.20;;;;;;5111838;28;20020;-81
2022/03/13 06:53:37;;;;;;;24.65;12.55;;;6.10;40.30;;;;;;5111813;28;20466;-82
2022/03/13 06:56:03;;;;;;;24.75;13.45;;;6.30;39.80;;;;;;5111853;28;20545;-82
2022/03/13 06:58:29;;;;;;;28.80;13.50;;;6.50;39.80;;;;;;5111680;28;20028;-81
2022/03/13 07:00:54;;;;;;;27.73;14.93;;;6.30;39.80;;;;;;5111710;28;20019;-82
2022/03/13 07:03:20;;;;;;;26.30;15.07;;;6.20;39.60;;;;;;5112495;28;20038;-81
2022/03/13 07:05:46;;;;;;;29.45;13.80;;;6.30;39.90;;;;;;5111591;28;20493;-82
2022/03/13 07:08:13;;;;;;;26.23;13.50;;;6.50;39.90;;;;;;5111109;28;20073;-82
2022/03/13 07:10:39;;;;;;;28.63;16.02;;;6.90;39.80;;;;;;5111280;28;20035;-79
2022/03/13 07:13:05;;;;;;;30.33;15.30;;;7.00;38.80;;;;;;5113021;28;20497;-82
2022/03/13 07:15:31;;;;;;;22.67;11.98;;;7.10;38.40;;;;;;5112796;28;20027;-83
2022/03/13 07:17:57;;;;;;;19.83;11.82;;;7.20;37.80;;;;;;5112584;28;20051;-84
2022/03/13 07:20:23;;;;;;;22.58;11.50;;;7.10;37.80;;;;;;5110790;28;20079;-84
2022/03/13 07:22:49;;;;;;;20.85;11.10;;;7.20;37.80;;;;;;5111354;28;20490;-81
2022/03/13 07:25:15;;;;;;;19.02;10.50;;;7.50;37.40;;;;;;5111591;28;20031;-84
2022/03/13 07:27:41;;;;;;;19.20;9.95;;;7.50;36.60;;;;;;5112465;28;20448;-81
2022/03/13 07:30:08;;;;;;;15.82;9.35;;;7.50;36.70;;;;;;5112363;28;20024;-84
2022/03/13 07:32:35;;;;;;;18.55;9.32;;;7.70;36.20;;;;;;5110211;28;20019;-85
2022/03/13 07:35:01;;;;;;;19.80;10.77;;;8.00;36.70;;;;;;5111208;28;20059;-80
2022/03/13 07:37:27;;;;;;;22.98;11.02;;;7.90;37.10;;;;;;5111010;28;20386;-82
2022/03/13 07:39:53;;;;;;;20.15;10.63;;;8.10;36.90;;;;;;5111438;28;20103;-81
2022/03/13 07:42:18;;;;;;;20.90;11.75;;;8.20;37.40;;;;;;5111136;28;20580;-78
2022/03/13 07:44:44;;;;;;;19.40;11.13;;;7.60;38.00;;;;;;5112227;28;20480;-80
2022/03/13 07:47:10;;;;;;;19.88;10.25;;;7.30;38.90;;;;;;5112010;28;20031;-82
2022/03/13 07:49:36;;;;;;;23.65;10.40;;;7.20;39.10;;;;;;5111869;28;20031;-81
2022/03/13 07:52:03;;;;;;;18.38;9.95;;;7.90;37.30;;;;;;5111860;28;20418;-82
2022/03/13 07:54:29;;;;;;;22.05;12.65;;;8.50;37.00;;;;;;5110406;28;20094;-82
2022/03/13 07:56:54;;;;;;;19.98;11.43;;;8.60;36.60;;;;;;5110889;28;20127;-81
2022/03/13 07:59:20;;;;;;;18.08;10.52;;;9.10;37.00;;;;;;5110527;28;20467;-81
2022/03/13 08:01:48;;;;;;;31.98;14.55;;;11.00;35.20;;;;;;5110938;28;20201;-82
2022/03/13 08:04:14;;;;;;;19.00;10.15;;;13.60;33.40;;;;;;5110886;28;20497;-81
2022/03/13 08:06:40;;;;;;;15.52;9.10;;;15.60;31.10;;;;;;5109842;28;20031;-80
2022/03/13 08:09:07;;;;;;;34.30;11.35;;;16.90;30.90;;;;;;5110150;28;20038;-80
2022/03/13 08:11:38;;;;;;;28.80;13.60;;;18.50;29.90;;;;;;5109374;28;20020;-79
2022/03/13 08:14:05;;;;;;;18.73;10.73;;;20.10;28.60;;;;;;5110051;28;20031;-80
2022/03/13 08:16:31;;;;;;;17.85;10.60;;;21.00;28.10;;;;;;5110770;28;20024;-79
2022/03/13 08:18:57;;;;;;;15.95;10.35;;;20.30;28.10;;;;;;5108633;28;20389;-80
2022/03/13 08:21:22;;;;;;;17.67;11.13;;;18.90;28.10;;;;;;5109203;28;20031;-79
2022/03/13 08:23:48;;;;;;;17.27;10.25;;;19.00;29.10;;;;;;5109089;28;20038;-79
2022/03/13 08:26:14;;;;;;;20.77;11.55;;;19.70;28.30;;;;;;5108960;28;20039;-80
2022/03/13 08:28:44;;;;;;;22.88;12.07;;;19.90;27.80;;;;;;5110815;28;20019;-79
2022/03/13 08:31:10;;;;;;;20.15;10.90;;;19.70;27.90;;;;;;5108655;28;20481;-79
2022/03/13 08:33:39;;;;;;;15.70;9.75;;;20.50;28.20;;;;;;5109274;28;20118;-80
2022/03/13 08:36:04;;;;;;;17.98;10.32;;;19.50;27.00;;;;;;5110387;28;20441;-81
2022/03/13 08:38:30;;;;;;;16.33;9.65;;;19.30;27.30;;;;;;5108652;28;20107;-80
2022/03/13 08:40:56;;;;;;;16.70;9.70;;;20.50;27.00;;;;;;5110223;28;20027;-79
2022/03/13 08:43:22;;;;;;;15.65;10.23;;;20.70;26.30;;;;;;5108925;28;20047;-80
2022/03/13 08:45:48;;;;;;;21.00;10.77;;;21.60;26.70;;;;;;5109431;28;20055;-80
2022/03/13 08:48:14;;;;;;;15.35;8.48;;;23.00;26.90;;;;;;5109956;28;20073;-80
2022/03/13 08:50:40;;;;;;;13.82;8.07;;;24.30;25.80;;;;;;5109208;28;20023;-82
2022/03/13 08:53:07;;;;;;;12.77;7.35;;;24.30;25.20;;;;;;5109265;28;20043;-81
2022/03/13 08:55:33;;;;;;;12.10;8.38;;;23.60;25.40;;;;;;5108839;28;20461;-80
2022/03/13 08:57:58;;;;;;;12.60;8.50;;;22.70;25.10;;;;;;5110456;28;20191;-81
2022/03/13 09:00:25;;;;;;;16.67;9.60;;;20.50;25.90;;;;;;5109316;28;20031;-81
2022/03/13 09:02:53;;;;;;;15.50;9.25;;;19.00;26.40;;;;;;5108855;28;20030;-80
2022/03/13 09:05:20;;;;;;;15.40;7.70;;;19.60;27.10;;;;;;5109936;28;20030;-82
2022/03/13 09:07:46;;;;;;;11.05;7.43;;;21.00;26.20;;;;;;5108867;28;20134;-79
2022/03/13 09:10:12;;;;;;;12.40;7.55;;;22.50;26.00;;;;;;5110368;28;20047;-81
2022/03/13 09:12:38;;;;;;;13.38;7.35;;;23.70;25.00;;;;;;5108714;28;20016;-81
2022/03/13 09:15:05;;;;;;;18.52;8.52;;;24.30;25.40;;;;;;5108531;28;20024;-81
2022/03/13 09:17:31;;;;;;;13.60;8.93;;;25.10;25.20;;;;;;5108947;28;20130;-81
2022/03/13 09:19:58;;;;;;;17.63;9.20;;;24.70;25.10;;;;;;5107798;28;20496;-79
2022/03/13 09:22:30;;;;;;;12.50;7.32;;;25.40;23.90;;;;;;5107859;28;20564;-81
2022/03/13 09:24:58;;;;;;;11.38;6.97;;;25.00;24.10;;;;;;5112415;28;20454;-83
2022/03/13 09:27:28;;;;;;;12.05;7.30;;;25.10;24.20;;;;;;5110899;28;20024;-81
2022/03/13 09:29:54;;;;;;;13.30;7.65;;;24.40;25.00;;;;;;5112248;28;20437;-81
2022/03/13 09:32:22;;;;;;;15.90;7.97;;;24.60;25.60;;;;;;5112153;28;20027;-81
2022/03/13 09:34:48;;;;;;;17.05;8.77;;;25.30;25.10;;;;;;5111897;28;20072;-82
2022/03/13 09:37:14;;;;;;;17.38;8.77;;;24.70;24.20;;;;;;5113503;28;20047;-82
2022/03/13 09:39:40;;;;;;;15.15;9.60;;;24.40;26.00;;;;;;5112133;28;20042;-82
2022/03/13 09:42:06;;;;;;;23.85;12.50;;;25.00;24.50;;;;;;5112134;28;20481;-82
2022/03/13 09:44:32;;;;;;;17.25;8.80;;;25.60;25.10;;;;;;4756667;28;10000565;-83
2022/03/13 09:46:58;;;;;;;21.38;9.57;;;24.50;24.10;;;;;;5108579;28;20031;-81
2022/03/13 09:49:24;;;;;;;12.50;6.97;;;23.60;25.90;;;;;;5109550;28;20082;-81
2022/03/13 09:51:51;;;;;;;10.63;7.00;;;24.20;25.30;;;;;;5108751;28;20118;-81
2022/03/13 09:54:17;;;;;;;13.68;7.60;;;25.00;25.50;;;;;;5111996;28;20027;-82
2022/03/13 09:56:43;;;;;;;10.77;7.28;;;24.70;25.30;;;;;;5113435;28;20084;-82
2022/03/13 09:59:09;;;;;;;15.38;8.02;;;25.30;25.20;;;;;;5113140;28;20111;-81
2022/03/13 10:01:35;;;;;;;25.42;9.10;;;25.70;24.80;;;;;;5112041;28;20038;-85
2022/03/13 10:04:01;;;;;;;12.68;7.55;;;26.00;24.70;;;;;;5113270;28;20024;-82
2022/03/13 10:06:28;;;;;;;22.40;13.27;;;26.20;25.70;;;;;;5111854;28;20023;-82
2022/03/13 10:08:54;;;;;;;16.15;10.23;;;26.60;24.80;;;;;;5112102;28;20478;-82
2022/03/13 10:11:33;;;;;;;11.38;7.97;;;26.80;24.70;;;;;;5111481;28;20024;-82
2022/03/13 10:14:07;;;;;;;13.40;7.93;;;26.90;24.80;;;;;;5113123;28;20458;-82
2022/03/13 10:16:37;;;;;;;11.60;8.38;;;25.40;24.90;;;;;;5111579;28;20491;-81
2022/03/13 10:19:18;;;;;;;10.80;7.40;;;25.10;25.00;;;;;;5112452;28;20056;-81
2022/03/13 10:22:03;;;;;;;11.48;7.78;;;24.70;25.00;;;;;;5111684;28;20086;-81
2022/03/13 10:24:29;;;;;;;14.07;8.40;;;22.80;25.00;;;;;;5113105;28;20470;-81
2022/03/13 10:27:11;;;;;;;11.88;7.55;;;21.40;25.50;;;;;;5114691;28;20115;-81
2022/03/13 10:29:37;;;;;;;15.02;8.57;;;22.50;25.30;;;;;;5116950;28;20012;-81
2022/03/13 10:32:05;;;;;;;12.38;7.95;;;23.10;25.00;;;;;;5115496;28;20034;-81
2022/03/13 10:34:31;;;;;;;19.75;8.27;;;23.30;24.80;;;;;;5115544;28;20034;-83
2022/03/13 10:36:57;;;;;;;14.95;7.60;;;23.90;25.10;;;;;;5116537;28;20023;-83
2022/03/13 10:39:23;;;;;;;13.27;8.05;;;24.70;24.40;;;;;;5114992;28;20122;-80
2022/03/13 10:41:59;;;;;;;11.65;7.88;;;23.30;24.60;;;;;;5115217;28;20110;-81
2022/03/13 10:44:30;;;;;;;12.95;8.23;;;22.40;25.30;;;;;;5115495;28;20026;-82
2022/03/13 10:46:58;;;;;;;10.75;7.80;;;22.70;24.90;;;;;;5116267;28;20372;-82
2022/03/13 10:49:41;;;;;;;12.80;7.45;;;22.10;25.20;;;;;;5115203;28;20026;-82
2022/03/13 10:52:29;;;;;;;12.05;8.70;;;23.40;24.70;;;;;;5115583;28;20562;-82
2022/03/13 10:54:56;;;;;;;13.25;8.88;;;24.40;25.60;;;;;;5115331;28;20015;-83
2022/03/13 10:57:23;;;;;;;13.95;8.80;;;26.00;25.20;;;;;;5116339;28;20160;-83
2022/03/13 11:00:21;;;;;;;13.10;8.93;;;26.20;24.80;;;;;;5115996;28;20394;-82
2022/03/13 11:02:48;;;;;;;12.93;8.45;;;26.70;24.40;;;;;;5036311;28;20060;-81
2022/03/13 11:05:14;;;;;;;12.05;8.18;;;26.10;24.50;;;;;;5053364;28;20086;-82
2022/03/13 11:07:41;;;;;;;16.73;8.40;;;24.00;24.30;;;;;;5036747;28;20115;-82
2022/03/13 11:10:11;;;;;;;12.73;8.48;;;22.70;25.20;;;;;;5036595;28;20025;-81
2022/03/13 11:12:38;;;;;;;22.70;8.85;;;22.20;25.40;;;;;;5036261;28;20500;-81
2022/03/13 11:15:06;;;;;;;11.02;7.72;;;23.10;25.00;;;;;;5036694;28;20108;-82
2022/03/13 11:17:33;;;;;;;20.15;7.82;;;24.30;25.40;;;;;;5053083;28;20037;-82
2022/03/13 11:20:01;;;;;;;15.18;7.88;;;25.30;24.90;;;;;;5035874;28;20048;-82
2022/03/13 11:22:28;;;;;;;14.57;7.57;;;23.00;24.30;;;;;;5052796;28;20112;-82
2022/03/13 11:25:03;;;;;;;9.98;7.30;;;21.30;24.90;;;;;;5036431;28;20040;-82
2022/03/13 11:27:35;;;;;;;11.13;7.35;;;20.40;25.50;;;;;;5036171;28;20065;-81
2022/03/13 11:30:00;;;;;;;13.77;8.35;;;18.10;25.80;;;;;;5036143;28;20029;-81
2022/03/13 11:32:40;;;;;;;10.88;7.60;;;16.20;26.60;;;;;;5036318;28;20036;-81
2022/03/13 11:35:18;;;;;;;12.63;7.30;;;15.10;27.00;;;;;;5052885;28;20039;-82
2022/03/13 11:37:48;;;;;;;12.77;7.72;;;14.80;27.90;;;;;;5052964;28;20032;-82
2022/03/13 11:40:16;;;;;;;11.38;7.10;;;14.90;26.60;;;;;;5114055;28;20035;-81
2022/03/13 11:42:56;;;;;;;20.30;8.73;;;15.00;27.20;;;;;;5114216;28;20019;-83
2022/03/13 11:45:45;;;;;;;11.43;7.25;;;14.90;26.50;;;;;;5114070;28;20028;-82
2022/03/13 11:48:20;;;;;;;12.93;8.07;;;14.80;27.00;;;;;;5114293;28;20558;-82
2022/03/13 11:50:56;;;;;;;13.88;7.45;;;15.10;27.00;;;;;;4211800;28;10021629;-82
2022/03/13 11:53:48;;;;;;;10.88;6.55;;;15.80;26.80;;;;;;5091215;28;20613;-81
2022/03/13 12:01:16;;;;;;;;;;;;;;;;;;;;;
2022/03/13 12:04:03;;;;;;;10.77;7.25;;;16.20;26.30;;;;;;4936514;29;20043;-80
2022/03/13 12:06:52;;;;;;;10.65;6.57;;;16.20;26.40;;;;;;4936398;29;20378;-82
2022/03/13 12:09:30;;;;;;;10.45;6.82;;;15.20;26.30;;;;;;4919749;29;20050;-81
2022/03/13 12:12:06;;;;;;;12.88;6.65;;;15.00;26.60;;;;;;4919245;29;20027;-82
2022/03/13 12:14:55;;;;;;;11.05;6.68;;;15.40;26.70;;;;;;4919668;29;20498;-81
2022/03/13 12:17:27;;;;;;;10.13;6.88;;;16.30;26.70;;;;;;4919196;29;20139;-83
2022/03/13 12:19:56;;;;;;;25.00;8.07;;;16.70;26.40;;;;;;4919941;29;20083;-85
2022/03/13 12:22:25;;;;;;;12.82;6.78;;;16.20;26.30;;;;;;4919647;29;20046;-82
2022/03/13 12:24:54;;;;;;;12.13;6.57;;;15.50;27.40;;;;;;4935731;29;20459;-82
2022/03/13 12:27:22;;;;;;;14.73;7.32;;;15.30;26.90;;;;;;4934792;29;20036;-81
2022/03/13 12:29:56;;;;;;;10.27;6.82;;;15.40;26.90;;;;;;4918752;29;20130;-81
2022/03/13 12:32:37;;;;;;;15.50;7.15;;;14.90;26.30;;;;;;4934997;29;20020;-81
2022/03/13 12:35:04;;;;;;;14.55;6.85;;;14.30;26.60;;;;;;4996631;28;20220;-81
2022/03/13 12:37:30;;;;;;;11.25;6.97;;;14.20;26.70;;;;;;5087806;28;20378;-81
2022/03/13 12:40:00;;;;;;;10.45;6.72;;;15.10;26.70;;;;;;5093769;28;20390;-81
2022/03/13 12:42:28;;;;;;;13.65;7.57;;;15.80;26.00;;;;;;5092894;28;20020;-83
2022/03/13 12:45:12;;;;;;;12.95;7.60;;;15.60;25.80;;;;;;5092913;28;20020;-82
2022/03/13 12:47:41;;;;;;;13.40;7.53;;;16.10;25.70;;;;;;5093895;28;20036;-81